sensor_id;sensor_type;location;lat;lon;timestamp;pressure;altitude;pressure_sealevel;temperature;humidity
61900;BME280;47853;55.890;37.664;2024-03-23T00:54:36;98269.38;;;6.31;100.00
61900;BME280;47853;55.890;37.664;2024-03-23T00:57:02;98283.69;;;5.95;100.00
61900;BME280;47853;55.890;37.664;2024-03-23T00:59:27;98277.13;;;6.24;100.00
61900;BME280;47853;55.890;37.664;2024-03-23T01:01:53;98276.63;;;5.95;100.00
61900;BME280;47853;55.890;37.664;2024-03-23T01:04:18;98281.91;;;6.20;100.00
61900;BME280;47853;55.890;37.664;2024-03-23T01:06:43;98279.41;;;5.61;100.00
61900;BME280;47853;55.890;37.664;2024-03-23T01:09:09;98261.97;;;6.18;100.00
61900;BME280;47853;55.890;37.664;2024-03-23T01:11:34;98260.75;;;6.53;100.00
61900;BME280;47853;55.890;37.664;2024-03-23T01:14:00;98257.34;;;6.20;100.00
61900;BME280;47853;55.890;37.664;2024-03-23T01:16:25;98263.59;;;5.77;100.00
61900;BME280;47853;55.890;37.664;2024-03-23T01:18:51;98251.91;;;6.30;100.00
61900;BME280;47853;55.890;37.664;2024-03-23T01:21:16;98255.06;;;6.08;100.00
61900;BME280;47853;55.890;37.664;2024-03-23T01:23:41;98244.41;;;6.98;100.00
61900;BME280;47853;55.890;37.664;2024-03-23T01:26:07;98253.56;;;5.56;100.00
61900;BME280;47853;55.890;37.664;2024-03-23T01:28:32;98227.53;;;5.94;100.00
61900;BME280;47853;55.890;37.664;2024-03-23T01:30:58;98243.78;;;6.39;100.00
61900;BME280;47853;55.890;37.664;2024-03-23T01:33:23;98235.56;;;6.34;100.00
61900;BME280;47853;55.890;37.664;2024-03-23T01:35:48;98241.53;;;5.78;100.00
61900;BME280;47853;55.890;37.664;2024-03-23T01:38:14;98227.69;;;6.26;100.00
61900;BME280;47853;55.890;37.664;2024-03-23T01:40:39;98221.28;;;5.87;100.00
61900;BME280;47853;55.890;37.664;2024-03-23T01:43:07;98219.50;;;5.63;100.00
61900;BME280;47853;55.890;37.664;2024-03-23T01:45:33;98213.19;;;6.22;100.00
61900;BME280;47853;55.890;37.664;2024-03-23T01:47:59;98222.44;;;6.18;100.00
61900;BME280;47853;55.890;37.664;2024-03-23T01:50:25;98202.34;;;6.17;100.00
61900;BME280;47853;55.890;37.664;2024-03-23T01:52:50;98218.28;;;6.32;100.00
61900;BME280;47853;55.890;37.664;2024-03-23T01:55:16;98206.56;;;6.34;100.00
61900;BME280;47853;55.890;37.664;2024-03-23T01:57:41;98195.28;;;5.84;100.00
61900;BME280;47853;55.890;37.664;2024-03-23T02:00:07;98210.56;;;5.89;100.00
61900;BME280;47853;55.890;37.664;2024-03-23T02:02:33;98210.91;;;5.28;100.00
61900;BME280;47853;55.890;37.664;2024-03-23T02:04:58;98189.84;;;6.02;100.00
61900;BME280;47853;55.890;37.664;2024-03-23T02:07:24;98181.88;;;6.27;100.00
61900;BME280;47853;55.890;37.664;2024-03-23T02:09:50;98185.75;;;5.75;100.00
61900;BME280;47853;55.890;37.664;2024-03-23T02:12:17;98166.44;;;5.99;100.00
61900;BME280;47853;55.890;37.664;2024-03-23T02:14:43;98163.81;;;5.99;100.00
61900;BME280;47853;55.890;37.664;2024-03-23T02:17:09;98169.72;;;6.09;100.00
61900;BME280;47853;55.890;37.664;2024-03-23T02:19:34;98155.91;;;5.91;100.00
61900;BME280;47853;55.890;37.664;2024-03-23T02:22:00;98162.16;;;6.06;100.00
61900;BME280;47853;55.890;37.664;2024-03-23T02:24:25;98152.06;;;6.27;100.00
61900;BME280;47853;55.890;37.664;2024-03-23T02:26:51;98142.28;;;5.54;100.00
61900;BME280;47853;55.890;37.664;2024-03-23T02:29:16;98150.69;;;5.66;100.00
61900;BME280;47853;55.890;37.664;2024-03-23T02:31:42;98144.06;;;6.03;100.00
61900;BME280;47853;55.890;37.664;2024-03-23T02:34:07;98149.78;;;6.07;100.00
61900;BME280;47853;55.890;37.664;2024-03-23T02:36:32;98145.38;;;6.47;100.00
61900;BME280;47853;55.890;37.664;2024-03-23T02:38:58;98118.84;;;5.92;100.00
61900;BME280;47853;55.890;37.664;2024-03-23T02:41:23;98111.22;;;6.14;100.00
61900;BME280;47853;55.890;37.664;2024-03-23T02:43:49;98131.84;;;6.50;100.00
61900;BME280;47853;55.890;37.664;2024-03-23T02:46:15;98111.25;;;5.98;100.00
61900;BME280;47853;55.890;37.664;2024-03-23T02:48:40;98121.72;;;5.66;100.00
61900;BME280;47853;55.890;37.664;2024-03-23T02:51:06;98113.94;;;5.73;100.00
61900;BME280;47853;55.890;37.664;2024-03-23T02:53:31;98092.22;;;5.71;100.00
61900;BME280;47853;55.890;37.664;2024-03-23T02:56:00;98097.16;;;5.82;100.00
61900;BME280;47853;55.890;37.664;2024-03-23T02:58:25;98107.53;;;5.75;100.00
61900;BME280;47853;55.890;37.664;2024-03-23T03:00:51;98083.72;;;5.27;100.00
61900;BME280;47853;55.890;37.664;2024-03-23T03:03:16;98071.22;;;5.21;100.00
61900;BME280;47853;55.890;37.664;2024-03-23T03:05:42;98083.47;;;6.35;100.00
61900;BME280;47853;55.890;37.664;2024-03-23T03:08:07;98069.03;;;5.66;100.00
61900;BME280;47853;55.890;37.664;2024-03-23T03:10:32;98072.97;;;5.70;100.00
61900;BME280;47853;55.890;37.664;2024-03-23T03:12:58;98064.16;;;6.03;100.00
61900;BME280;47853;55.890;37.664;2024-03-23T03:15:23;98067.59;;;6.43;100.00
61900;BME280;47853;55.890;37.664;2024-03-23T03:17:49;98077.22;;;5.79;100.00
61900;BME280;47853;55.890;37.664;2024-03-23T03:20:14;98065.19;;;5.85;100.00
61900;BME280;47853;55.890;37.664;2024-03-23T03:22:40;98048.88;;;5.81;100.00
61900;BME280;47853;55.890;37.664;2024-03-23T03:25:05;98058.63;;;5.81;100.00
61900;BME280;47853;55.890;37.664;2024-03-23T03:27:31;98052.59;;;5.56;100.00
61900;BME280;47853;55.890;37.664;2024-03-23T03:29:56;98052.19;;;5.75;100.00
61900;BME280;47853;55.890;37.664;2024-03-23T03:32:22;98054.22;;;6.13;100.00
61900;BME280;47853;55.890;37.664;2024-03-23T03:34:47;98047.50;;;6.11;100.00
61900;BME280;47853;55.890;37.664;2024-03-23T03:37:13;98047.28;;;6.20;100.00
61900;BME280;47853;55.890;37.664;2024-03-23T03:39:38;98036.16;;;6.02;100.00
61900;BME280;47853;55.890;37.664;2024-03-23T03:42:03;98028.88;;;6.44;100.00
61900;BME280;47853;55.890;37.664;2024-03-23T03:44:29;98046.16;;;6.70;100.00
61900;BME280;47853;55.890;37.664;2024-03-23T03:46:54;98044.56;;;6.05;100.00
61900;BME280;47853;55.890;37.664;2024-03-23T03:49:20;98025.75;;;6.40;100.00
61900;BME280;47853;55.890;37.664;2024-03-23T03:51:45;98010.84;;;6.24;100.00
61900;BME280;47853;55.890;37.664;2024-03-23T03:54:10;98034.53;;;5.92;100.00
61900;BME280;47853;55.890;37.664;2024-03-23T03:56:36;98019.19;;;5.48;100.00
61900;BME280;47853;55.890;37.664;2024-03-23T03:59:01;98004.34;;;5.55;100.00
61900;BME280;47853;55.890;37.664;2024-03-23T04:01:27;98002.59;;;5.87;100.00
61900;BME280;47853;55.890;37.664;2024-03-23T04:03:52;98005.91;;;6.21;100.00
61900;BME280;47853;55.890;37.664;2024-03-23T04:06:20;97994.22;;;5.84;100.00
61900;BME280;47853;55.890;37.664;2024-03-23T04:08:46;97996.03;;;6.23;100.00
61900;BME280;47853;55.890;37.664;2024-03-23T04:11:11;98003.56;;;5.55;100.00
61900;BME280;47853;55.890;37.664;2024-03-23T04:13:37;97987.06;;;5.61;100.00
61900;BME280;47853;55.890;37.664;2024-03-23T04:16:02;97997.81;;;5.43;100.00
61900;BME280;47853;55.890;37.664;2024-03-23T04:18:28;97988.47;;;5.32;100.00
61900;BME280;47853;55.890;37.664;2024-03-23T04:20:53;97966.88;;;5.45;100.00
61900;BME280;47853;55.890;37.664;2024-03-23T04:23:19;97978.56;;;5.42;100.00
61900;BME280;47853;55.890;37.664;2024-03-23T04:25:44;97974.22;;;5.98;100.00
61900;BME280;47853;55.890;37.664;2024-03-23T04:28:10;97971.94;;;5.94;100.00
61900;BME280;47853;55.890;37.664;2024-03-23T04:30:35;97956.59;;;6.06;100.00
61900;BME280;47853;55.890;37.664;2024-03-23T04:33:00;97961.25;;;6.28;100.00
61900;BME280;47853;55.890;37.664;2024-03-23T04:35:26;97950.56;;;6.44;100.00
61900;BME280;47853;55.890;37.664;2024-03-23T04:37:53;97946.88;;;6.30;100.00
61900;BME280;47853;55.890;37.664;2024-03-23T04:40:18;97937.06;;;5.44;100.00
61900;BME280;47853;55.890;37.664;2024-03-23T04:42:44;97944.81;;;6.41;100.00
61900;BME280;47853;55.890;37.664;2024-03-23T04:45:10;97949.47;;;6.77;100.00
61900;BME280;47853;55.890;37.664;2024-03-23T04:47:35;97943.91;;;6.02;100.00
61900;BME280;47853;55.890;37.664;2024-03-23T04:50:01;97960.34;;;5.32;100.00
61900;BME280;47853;55.890;37.664;2024-03-23T04:52:27;97941.13;;;5.95;100.00
61900;BME280;47853;55.890;37.664;2024-03-23T04:54:52;97931.66;;;5.77;100.00
61900;BME280;47853;55.890;37.664;2024-03-23T04:57:17;97925.13;;;6.05;100.00
61900;BME280;47853;55.890;37.664;2024-03-23T04:59:43;97933.22;;;6.03;100.00
61900;BME280;47853;55.890;37.664;2024-03-23T05:02:08;97930.63;;;6.18;100.00
61900;BME280;47853;55.890;37.664;2024-03-23T05:04:35;97929.94;;;6.01;100.00
61900;BME280;47853;55.890;37.664;2024-03-23T05:07:00;97927.41;;;5.76;100.00
61900;BME280;47853;55.890;37.664;2024-03-23T05:09:26;97931.13;;;5.90;100.00
61900;BME280;47853;55.890;37.664;2024-03-23T05:11:51;97905.53;;;5.99;100.00
61900;BME280;47853;55.890;37.664;2024-03-23T05:14:17;97928.63;;;5.97;100.00
61900;BME280;47853;55.890;37.664;2024-03-23T05:16:42;97918.16;;;6.35;100.00
61900;BME280;47853;55.890;37.664;2024-03-23T05:19:07;97919.28;;;6.18;100.00
61900;BME280;47853;55.890;37.664;2024-03-23T05:21:33;97917.72;;;5.69;100.00
61900;BME280;47853;55.890;37.664;2024-03-23T05:23:58;97907.88;;;6.26;100.00
61900;BME280;47853;55.890;37.664;2024-03-23T05:26:24;97903.94;;;6.60;100.00
61900;BME280;47853;55.890;37.664;2024-03-23T05:28:49;97911.84;;;5.90;100.00
61900;BME280;47853;55.890;37.664;2024-03-23T05:31:25;97915.50;;;5.49;100.00
61900;BME280;47853;55.890;37.664;2024-03-23T05:33:51;97905.63;;;6.14;100.00
61900;BME280;47853;55.890;37.664;2024-03-23T05:36:17;97869.06;;;6.34;100.00
61900;BME280;47853;55.890;37.664;2024-03-23T05:38:43;97886.78;;;5.94;100.00
61900;BME280;47853;55.890;37.664;2024-03-23T05:41:08;97885.00;;;6.41;100.00
61900;BME280;47853;55.890;37.664;2024-03-23T05:43:33;97876.69;;;6.29;100.00
61900;BME280;47853;55.890;37.664;2024-03-23T05:46:00;97883.59;;;6.30;100.00
61900;BME280;47853;55.890;37.664;2024-03-23T05:48:26;97884.50;;;6.22;100.00
61900;BME280;47853;55.890;37.664;2024-03-23T05:50:52;97876.16;;;5.47;100.00
61900;BME280;47853;55.890;37.664;2024-03-23T05:53:18;97873.22;;;5.82;100.00
61900;BME280;47853;55.890;37.664;2024-03-23T05:55:44;97853.81;;;6.06;100.00
61900;BME280;47853;55.890;37.664;2024-03-23T05:58:10;97868.41;;;6.32;100.00
61900;BME280;47853;55.890;37.664;2024-03-23T06:00:35;97867.19;;;6.43;100.00
61900;BME280;47853;55.890;37.664;2024-03-23T06:03:01;97865.03;;;5.37;100.00
61900;BME280;47853;55.890;37.664;2024-03-23T06:05:27;97868.59;;;5.84;100.00
61900;BME280;47853;55.890;37.664;2024-03-23T06:07:52;97861.31;;;5.86;100.00
61900;BME280;47853;55.890;37.664;2024-03-23T06:10:18;97846.78;;;6.37;100.00
61900;BME280;47853;55.890;37.664;2024-03-23T06:12:43;97848.88;;;6.03;100.00
61900;BME280;47853;55.890;37.664;2024-03-23T06:15:09;97855.38;;;6.16;100.00
61900;BME280;47853;55.890;37.664;2024-03-23T06:17:34;97842.66;;;6.19;100.00
61900;BME280;47853;55.890;37.664;2024-03-23T06:20:00;97844.63;;;5.94;100.00
61900;BME280;47853;55.890;37.664;2024-03-23T06:22:35;97835.59;;;6.35;100.00
61900;BME280;47853;55.890;37.664;2024-03-23T06:25:01;97856.13;;;5.78;100.00
61900;BME280;47853;55.890;37.664;2024-03-23T06:27:26;97846.25;;;6.03;100.00
61900;BME280;47853;55.890;37.664;2024-03-23T06:29:52;97832.88;;;6.43;100.00
61900;BME280;47853;55.890;37.664;2024-03-23T06:32:17;97839.41;;;5.86;100.00
61900;BME280;47853;55.890;37.664;2024-03-23T06:34:43;97837.72;;;5.93;100.00
61900;BME280;47853;55.890;37.664;2024-03-23T06:37:09;97833.16;;;6.10;100.00
61900;BME280;47853;55.890;37.664;2024-03-23T06:39:34;97839.72;;;6.14;100.00
61900;BME280;47853;55.890;37.664;2024-03-23T06:41:59;97832.56;;;5.76;100.00
61900;BME280;47853;55.890;37.664;2024-03-23T06:44:25;97808.16;;;5.28;100.00
61900;BME280;47853;55.890;37.664;2024-03-23T06:46:50;97820.75;;;5.72;100.00
61900;BME280;47853;55.890;37.664;2024-03-23T06:49:16;97821.38;;;6.21;100.00
61900;BME280;47853;55.890;37.664;2024-03-23T06:51:41;97820.53;;;5.50;100.00
61900;BME280;47853;55.890;37.664;2024-03-23T06:54:07;97816.75;;;6.23;100.00
61900;BME280;47853;55.890;37.664;2024-03-23T06:56:32;97823.44;;;6.34;100.00
61900;BME280;47853;55.890;37.664;2024-03-23T06:58:58;97799.19;;;5.69;100.00
61900;BME280;47853;55.890;37.664;2024-03-23T07:01:24;97806.56;;;6.20;100.00
61900;BME280;47853;55.890;37.664;2024-03-23T07:03:49;97809.34;;;6.42;100.00
61900;BME280;47853;55.890;37.664;2024-03-23T07:06:15;97799.44;;;5.82;100.00
61900;BME280;47853;55.890;37.664;2024-03-23T07:08:40;97810.50;;;5.77;100.00
61900;BME280;47853;55.890;37.664;2024-03-23T07:11:06;97777.19;;;5.85;100.00
61900;BME280;47853;55.890;37.664;2024-03-23T07:13:31;97791.34;;;5.60;100.00
61900;BME280;47853;55.890;37.664;2024-03-23T07:15:57;97797.09;;;5.64;100.00
61900;BME280;47853;55.890;37.664;2024-03-23T07:18:23;97798.81;;;6.72;100.00
61900;BME280;47853;55.890;37.664;2024-03-23T07:20:55;97841.94;;;5.47;100.00
61900;BME280;47853;55.890;37.664;2024-03-23T07:23:21;97793.75;;;5.47;100.00
61900;BME280;47853;55.890;37.664;2024-03-23T07:25:59;97801.31;;;6.20;100.00
61900;BME280;47853;55.890;37.664;2024-03-23T07:28:25;97785.63;;;6.03;100.00
61900;BME280;47853;55.890;37.664;2024-03-23T07:31:07;97791.56;;;5.74;100.00
61900;BME280;47853;55.890;37.664;2024-03-23T07:33:33;97791.53;;;6.44;100.00
61900;BME280;47853;55.890;37.664;2024-03-23T07:35:59;97787.13;;;6.21;100.00
61900;BME280;47853;55.890;37.664;2024-03-23T07:38:25;97787.63;;;5.78;100.00
61900;BME280;47853;55.890;37.664;2024-03-23T07:40:51;97800.38;;;5.66;100.00
61900;BME280;47853;55.890;37.664;2024-03-23T07:43:16;97780.06;;;5.98;100.00
61900;BME280;47853;55.890;37.664;2024-03-23T07:45:42;97786.91;;;5.61;100.00
61900;BME280;47853;55.890;37.664;2024-03-23T07:48:07;97784.78;;;5.56;100.00
61900;BME280;47853;55.890;37.664;2024-03-23T07:50:33;97758.88;;;6.30;100.00
61900;BME280;47853;55.890;37.664;2024-03-23T07:52:58;97791.41;;;5.99;100.00
61900;BME280;47853;55.890;37.664;2024-03-23T07:55:23;97768.56;;;5.68;100.00
61900;BME280;47853;55.890;37.664;2024-03-23T07:57:51;97764.44;;;5.73;100.00
61900;BME280;47853;55.890;37.664;2024-03-23T08:00:16;97777.94;;;6.17;100.00
61900;BME280;47853;55.890;37.664;2024-03-23T08:02:42;97779.88;;;5.76;100.00
61900;BME280;47853;55.890;37.664;2024-03-23T08:05:07;97767.53;;;5.77;100.00
61900;BME280;47853;55.890;37.664;2024-03-23T08:07:33;97785.44;;;5.81;100.00
61900;BME280;47853;55.890;37.664;2024-03-23T08:10:01;97765.94;;;6.29;100.00
61900;BME280;47853;55.890;37.664;2024-03-23T08:12:27;97754.47;;;6.07;100.00
61900;BME280;47853;55.890;37.664;2024-03-23T08:14:52;97763.94;;;6.31;100.00
61900;BME280;47853;55.890;37.664;2024-03-23T08:17:17;97757.31;;;6.20;100.00
61900;BME280;47853;55.890;37.664;2024-03-23T08:19:43;97748.56;;;6.05;100.00
61900;BME280;47853;55.890;37.664;2024-03-23T08:22:08;97741.66;;;6.19;100.00
61900;BME280;47853;55.890;37.664;2024-03-23T08:24:34;97755.03;;;7.07;100.00
61900;BME280;47853;55.890;37.664;2024-03-23T08:27:00;97750.50;;;6.86;100.00
61900;BME280;47853;55.890;37.664;2024-03-23T08:29:25;97742.88;;;6.61;100.00
61900;BME280;47853;55.890;37.664;2024-03-23T08:31:51;97748.72;;;6.42;100.00
61900;BME280;47853;55.890;37.664;2024-03-23T08:34:16;97751.72;;;7.05;100.00
61900;BME280;47853;55.890;37.664;2024-03-23T08:36:42;97744.41;;;5.87;100.00
61900;BME280;47853;55.890;37.664;2024-03-23T08:39:07;97742.50;;;5.96;100.00
61900;BME280;47853;55.890;37.664;2024-03-23T08:41:35;97731.56;;;6.97;100.00
61900;BME280;47853;55.890;37.664;2024-03-23T08:44:01;97743.13;;;6.06;100.00
61900;BME280;47853;55.890;37.664;2024-03-23T08:46:26;97737.34;;;6.56;100.00
61900;BME280;47853;55.890;37.664;2024-03-23T08:48:51;97730.22;;;6.12;100.00
61900;BME280;47853;55.890;37.664;2024-03-23T08:51:17;97750.03;;;5.84;100.00
61900;BME280;47853;55.890;37.664;2024-03-23T08:53:43;97736.13;;;5.90;100.00
61900;BME280;47853;55.890;37.664;2024-03-23T08:56:09;97738.88;;;6.20;100.00
61900;BME280;47853;55.890;37.664;2024-03-23T08:58:36;97725.09;;;6.10;100.00
61900;BME280;47853;55.890;37.664;2024-03-23T09:01:08;97750.06;;;6.22;100.00
61900;BME280;47853;55.890;37.664;2024-03-23T09:03:35;97730.47;;;5.32;100.00
61900;BME280;47853;55.890;37.664;2024-03-23T09:06:02;97730.19;;;6.87;100.00
61900;BME280;47853;55.890;37.664;2024-03-23T09:08:28;97715.94;;;5.83;100.00
61900;BME280;47853;55.890;37.664;2024-03-23T09:10:53;97703.16;;;6.48;100.00
61900;BME280;47853;55.890;37.664;2024-03-23T09:13:19;97718.69;;;6.43;100.00
61900;BME280;47853;55.890;37.664;2024-03-23T09:15:51;97718.81;;;5.73;100.00
61900;BME280;47853;55.890;37.664;2024-03-23T09:18:17;97720.69;;;6.26;100.00
61900;BME280;47853;55.890;37.664;2024-03-23T09:20:43;97715.75;;;6.07;100.00
61900;BME280;47853;55.890;37.664;2024-03-23T09:23:08;97694.19;;;7.37;100.00
61900;BME280;47853;55.890;37.664;2024-03-23T09:25:40;97688.41;;;6.38;100.00
61900;BME280;47853;55.890;37.664;2024-03-23T09:28:08;97695.50;;;7.26;100.00
61900;BME280;47853;55.890;37.664;2024-03-23T09:30:34;97687.38;;;6.55;100.00
61900;BME280;47853;55.890;37.664;2024-03-23T09:33:00;97702.88;;;6.43;100.00
61900;BME280;47853;55.890;37.664;2024-03-23T09:35:26;97690.66;;;6.72;100.00
61900;BME280;47853;55.890;37.664;2024-03-23T09:37:51;97708.31;;;6.26;100.00
61900;BME280;47853;55.890;37.664;2024-03-23T09:40:16;97685.00;;;6.60;100.00
61900;BME280;47853;55.890;37.664;2024-03-23T09:42:42;97682.13;;;6.39;100.00
61900;BME280;47853;55.890;37.664;2024-03-23T09:45:17;97693.91;;;6.74;100.00
61900;BME280;47853;55.890;37.664;2024-03-23T09:47:42;97707.41;;;6.19;100.00
61900;BME280;47853;55.890;37.664;2024-03-23T09:50:09;97688.84;;;7.09;100.00
61900;BME280;47853;55.890;37.664;2024-03-23T09:52:34;97697.75;;;6.11;100.00
61900;BME280;47853;55.890;37.664;2024-03-23T09:55:00;97675.03;;;6.40;100.00
61900;BME280;47853;55.890;37.664;2024-03-23T09:57:26;97680.66;;;6.67;100.00
61900;BME280;47853;55.890;37.664;2024-03-23T09:59:51;97675.00;;;6.85;100.00
61900;BME280;47853;55.890;37.664;2024-03-23T10:02:17;97679.34;;;7.58;100.00
61900;BME280;47853;55.890;37.664;2024-03-23T10:04:43;97672.38;;;7.07;100.00
61900;BME280;47853;55.890;37.664;2024-03-23T10:07:21;97667.81;;;7.66;100.00
61900;BME280;47853;55.890;37.664;2024-03-23T10:09:46;97677.16;;;7.18;100.00
61900;BME280;47853;55.890;37.664;2024-03-23T10:12:16;97675.34;;;7.19;100.00
61900;BME280;47853;55.890;37.664;2024-03-23T10:14:42;97676.00;;;7.06;100.00
61900;BME280;47853;55.890;37.664;2024-03-23T10:17:16;97676.75;;;6.63;100.00
61900;BME280;47853;55.890;37.664;2024-03-23T10:19:41;97687.53;;;6.83;100.00
61900;BME280;47853;55.890;37.664;2024-03-23T10:22:08;97664.13;;;6.95;100.00
61900;BME280;47853;55.890;37.664;2024-03-23T10:24:33;97666.59;;;7.40;100.00
61900;BME280;47853;55.890;37.664;2024-03-23T10:26:58;97672.88;;;6.95;100.00
61900;BME280;47853;55.890;37.664;2024-03-23T10:29:24;97663.59;;;6.85;100.00
61900;BME280;47853;55.890;37.664;2024-03-23T10:31:49;97663.63;;;7.28;100.00
61900;BME280;47853;55.890;37.664;2024-03-23T10:34:15;97657.09;;;7.24;100.00
61900;BME280;47853;55.890;37.664;2024-03-23T10:36:40;97660.19;;;6.69;100.00
61900;BME280;47853;55.890;37.664;2024-03-23T10:39:07;97655.66;;;7.43;100.00
61900;BME280;47853;55.890;37.664;2024-03-23T10:41:33;97664.44;;;6.85;100.00
61900;BME280;47853;55.890;37.664;2024-03-23T10:43:58;97646.31;;;7.97;100.00
61900;BME280;47853;55.890;37.664;2024-03-23T10:46:25;97656.19;;;6.95;100.00
61900;BME280;47853;55.890;37.664;2024-03-23T10:48:51;97660.47;;;7.61;100.00
61900;BME280;47853;55.890;37.664;2024-03-23T10:51:16;97649.53;;;7.93;100.00
61900;BME280;47853;55.890;37.664;2024-03-23T10:53:42;97657.91;;;7.46;100.00
61900;BME280;47853;55.890;37.664;2024-03-23T10:56:08;97650.44;;;7.28;100.00
61900;BME280;47853;55.890;37.664;2024-03-23T11:01:05;97661.66;;;6.57;100.00
61900;BME280;47853;55.890;37.664;2024-03-23T11:05:56;97664.69;;;7.12;100.00
61900;BME280;47853;55.890;37.664;2024-03-23T11:08:32;97660.69;;;7.38;100.00
61900;BME280;47853;55.890;37.664;2024-03-23T11:11:20;97648.47;;;7.59;100.00
61900;BME280;47853;55.890;37.664;2024-03-23T11:13:53;97656.88;;;7.69;100.00
61900;BME280;47853;55.890;37.664;2024-03-23T11:18:47;97650.47;;;7.85;100.00
61900;BME280;47853;55.890;37.664;2024-03-23T11:24:16;97635.19;;;8.09;100.00
61900;BME280;47853;55.890;37.664;2024-03-23T11:26:41;97636.59;;;7.04;100.00
61900;BME280;47853;55.890;37.664;2024-03-23T11:29:17;97647.78;;;7.06;100.00
61900;BME280;47853;55.890;37.664;2024-03-23T11:31:47;97643.56;;;7.84;100.00
61900;BME280;47853;55.890;37.664;2024-03-23T11:34:12;97648.47;;;7.15;100.00
61900;BME280;47853;55.890;37.664;2024-03-23T11:36:38;97633.31;;;7.46;100.00
61900;BME280;47853;55.890;37.664;2024-03-23T11:41:51;97637.94;;;7.37;100.00
61900;BME280;47853;55.890;37.664;2024-03-23T11:44:22;97632.50;;;7.45;100.00
61900;BME280;47853;55.890;37.664;2024-03-23T11:46:48;97652.22;;;6.84;100.00
61900;BME280;47853;55.890;37.664;2024-03-23T11:49:28;97625.44;;;7.52;100.00
61900;BME280;47853;55.890;37.664;2024-03-23T11:51:55;97625.91;;;7.56;100.00
61900;BME280;47853;55.890;37.664;2024-03-23T11:54:22;97633.59;;;7.79;100.00
61900;BME280;47853;55.890;37.664;2024-03-23T11:59:37;97642.06;;;7.46;100.00
61900;BME280;47853;55.890;37.664;2024-03-23T12:02:24;97614.00;;;7.17;100.00
61900;BME280;47853;55.890;37.664;2024-03-23T12:05:17;97563.00;;;7.16;100.00
61900;BME280;47853;55.890;37.664;2024-03-23T12:07:43;97633.97;;;8.11;100.00
61900;BME280;47853;55.890;37.664;2024-03-23T12:10:08;97634.72;;;7.20;100.00
61900;BME280;47853;55.890;37.664;2024-03-23T12:12:34;97624.41;;;7.03;100.00
61900;BME280;47853;55.890;37.664;2024-03-23T12:17:27;97619.38;;;8.22;100.00
61900;BME280;47853;55.890;37.664;2024-03-23T12:19:53;97621.75;;;8.10;100.00
61900;BME280;47853;55.890;37.664;2024-03-23T12:22:22;97611.44;;;7.80;100.00
61900;BME280;47853;55.890;37.664;2024-03-23T12:24:48;97628.56;;;7.34;100.00
61900;BME280;47853;55.890;37.664;2024-03-23T12:27:14;97622.66;;;7.61;100.00
61900;BME280;47853;55.890;37.664;2024-03-23T12:29:39;97635.63;;;7.55;100.00
61900;BME280;47853;55.890;37.664;2024-03-23T12:32:05;97613.28;;;7.08;100.00
61900;BME280;47853;55.890;37.664;2024-03-23T12:34:30;97621.22;;;7.30;100.00
61900;BME280;47853;55.890;37.664;2024-03-23T12:36:56;97600.03;;;7.01;100.00
61900;BME280;47853;55.890;37.664;2024-03-23T12:39:22;97612.06;;;7.54;100.00
61900;BME280;47853;55.890;37.664;2024-03-23T12:41:48;97615.47;;;7.76;100.00
61900;BME280;47853;55.890;37.664;2024-03-23T12:44:14;97595.03;;;7.92;100.00
61900;BME280;47853;55.890;37.664;2024-03-23T12:46:39;97611.06;;;7.33;100.00
61900;BME280;47853;55.890;37.664;2024-03-23T12:49:05;97609.25;;;8.26;100.00
61900;BME280;47853;55.890;37.664;2024-03-23T12:51:30;97611.56;;;7.72;100.00
61900;BME280;47853;55.890;37.664;2024-03-23T12:53:56;97610.53;;;7.66;100.00
61900;BME280;47853;55.890;37.664;2024-03-23T12:56:22;97613.41;;;7.72;100.00
61900;BME280;47853;55.890;37.664;2024-03-23T12:58:47;97614.44;;;8.12;100.00
61900;BME280;47853;55.890;37.664;2024-03-23T13:01:12;97605.97;;;8.66;100.00
61900;BME280;47853;55.890;37.664;2024-03-23T13:03:38;97589.03;;;8.53;100.00
61900;BME280;47853;55.890;37.664;2024-03-23T13:06:03;97610.72;;;8.00;100.00
61900;BME280;47853;55.890;37.664;2024-03-23T13:08:29;97609.59;;;7.81;100.00
61900;BME280;47853;55.890;37.664;2024-03-23T13:10:54;97609.59;;;8.16;100.00
61900;BME280;47853;55.890;37.664;2024-03-23T13:13:20;97595.81;;;7.07;100.00
61900;BME280;47853;55.890;37.664;2024-03-23T13:15:51;97604.94;;;7.83;100.00
61900;BME280;47853;55.890;37.664;2024-03-23T13:18:17;97604.13;;;8.24;100.00
61900;BME280;47853;55.890;37.664;2024-03-23T13:20:42;97608.00;;;7.87;100.00
61900;BME280;47853;55.890;37.664;2024-03-23T13:23:07;97607.50;;;7.19;100.00
61900;BME280;47853;55.890;37.664;2024-03-23T13:25:33;97620.03;;;6.74;100.00
61900;BME280;47853;55.890;37.664;2024-03-23T13:27:58;97588.53;;;7.31;100.00
61900;BME280;47853;55.890;37.664;2024-03-23T13:30:24;97596.81;;;7.84;100.00
61900;BME280;47853;55.890;37.664;2024-03-23T13:32:49;97598.31;;;7.65;100.00
61900;BME280;47853;55.890;37.664;2024-03-23T13:35:15;97586.78;;;7.73;100.00
61900;BME280;47853;55.890;37.664;2024-03-23T13:37:40;97598.16;;;7.74;100.00
61900;BME280;47853;55.890;37.664;2024-03-23T13:40:07;97600.91;;;7.30;100.00
61900;BME280;47853;55.890;37.664;2024-03-23T13:42:32;97594.06;;;7.64;100.00
61900;BME280;47853;55.890;37.664;2024-03-23T13:44:58;97594.22;;;7.63;100.00
61900;BME280;47853;55.890;37.664;2024-03-23T13:47:23;97580.94;;;6.77;100.00
61900;BME280;47853;55.890;37.664;2024-03-23T13:49:49;97590.16;;;7.60;100.00
61900;BME280;47853;55.890;37.664;2024-03-23T13:52:14;97589.31;;;7.53;100.00
61900;BME280;47853;55.890;37.664;2024-03-23T13:54:39;97603.91;;;7.05;100.00
61900;BME280;47853;55.890;37.664;2024-03-23T13:57:08;97595.72;;;7.72;100.00